createdAt,value
2022-12-27T00:02:01.353Z,100415.16
2022-12-27T00:04:28.431Z,100413.78
2022-12-27T00:06:55.058Z,100415.03
2022-12-27T00:09:22.199Z,100426.22
2022-12-27T00:11:48.926Z,100421.91
2022-12-27T00:14:15.526Z,100437.38
2022-12-27T00:16:42.134Z,100418.53
2022-12-27T00:19:08.727Z,100429.44
2022-12-27T00:21:36.671Z,100430.72
2022-12-27T00:24:04.138Z,100428.28
2022-12-27T00:26:32.994Z,100425.81
2022-12-27T00:29:00.218Z,100426.66
2022-12-27T00:31:29.946Z,100425.81
2022-12-27T00:33:58.968Z,100432.00
2022-12-27T00:36:27.755Z,100430.13
2022-12-27T00:38:54.852Z,100429.06
2022-12-27T00:41:21.525Z,100422.69
2022-12-27T00:43:48.423Z,100434.22
2022-12-27T00:46:15.703Z,100426.97
2022-12-27T00:48:42.876Z,100433.38
2022-12-27T00:51:15.160Z,100432.34
2022-12-27T00:53:42.627Z,100431.06
2022-12-27T00:56:15.908Z,100428.63
2022-12-27T00:58:42.710Z,100434.44
2022-12-27T01:01:14.842Z,100437.34
2022-12-27T01:03:41.550Z,100436.53
2022-12-27T01:06:11.560Z,100439.44
2022-12-27T01:08:38.943Z,100441.88
2022-12-27T01:11:06.322Z,100441.06
2022-12-27T01:13:33.322Z,100449.91
2022-12-27T01:15:59.907Z,100443.50
2022-12-27T01:18:26.532Z,100454.22
2022-12-27T01:20:53.147Z,100456.75
2022-12-27T01:23:19.670Z,100453.50
2022-12-27T01:25:46.237Z,100464.66
2022-12-27T01:28:12.833Z,100468.38
2022-12-27T01:30:39.394Z,100476.41
2022-12-27T01:33:05.967Z,100485.47
2022-12-27T01:35:32.595Z,100475.25
2022-12-27T01:37:59.157Z,100476.88
2022-12-27T01:40:26.157Z,100472.56
2022-12-27T01:42:52.743Z,100475.66
2022-12-27T01:45:26.065Z,100478.34
2022-12-27T01:48:11.249Z,100480.22
2022-12-27T01:50:49.533Z,100488.69
2022-12-27T01:53:29.903Z,100492.88
2022-12-27T01:56:22.946Z,100484.59
2022-12-27T01:58:57.011Z,100495.88
2022-12-27T02:01:28.088Z,100511.34
2022-12-27T02:04:00.191Z,100510.19
2022-12-27T02:06:27.991Z,100507.81
2022-12-27T02:09:09.120Z,100518.88
2022-12-27T02:11:52.239Z,100516.19
2022-12-27T02:14:32.409Z,100514.81
2022-12-27T02:17:02.870Z,100515.84
2022-12-27T02:19:41.842Z,100515.25
2022-12-27T02:22:53.198Z,100501.66
2022-12-27T02:25:38.163Z,100504.91
2022-12-27T02:28:25.848Z,100502.94
2022-12-27T02:30:59.809Z,100499.22
2022-12-27T02:33:32.502Z,100499.81
2022-12-27T02:36:05.938Z,100502.47
2022-12-27T02:38:42.792Z,100504.09
2022-12-27T02:41:30.899Z,100503.66
2022-12-27T02:44:16.863Z,100505.75
2022-12-27T02:47:03.339Z,100511.88
2022-12-27T02:49:56.917Z,100504.56
2022-12-27T02:53:03.585Z,100508.28
2022-12-27T02:55:30.123Z,100514.22
2022-12-27T02:58:33.571Z,100504.56
2022-12-27T03:01:29.010Z,100513.00
2022-12-27T03:04:18.385Z,100504.84
2022-12-27T03:06:55.896Z,100501.84
2022-12-27T03:09:59.927Z,100503.09
2022-12-27T03:12:54.285Z,100507.38
2022-12-27T03:15:55.618Z,100504.13
2022-12-27T03:18:28.199Z,100505.16
2022-12-27T03:21:16.518Z,100508.88
2022-12-27T03:24:04.636Z,100507.59
2022-12-27T03:26:34.547Z,100504.13
2022-12-27T03:29:21.420Z,100511.56
2022-12-27T03:32:14.144Z,100515.84
2022-12-27T03:34:47.812Z,100507.84
2022-12-27T03:37:49.143Z,100499.22
2022-12-27T03:40:34.534Z,100507.25
2022-12-27T03:43:15.609Z,100505.84
2022-12-27T03:46:17.410Z,100498.63
2022-12-27T03:48:55.386Z,100518.41
2022-12-27T03:51:25.001Z,100511.56
2022-12-27T03:53:57.708Z,100514.81
2022-12-27T03:56:24.521Z,100515.84
2022-12-27T03:58:52.395Z,100519.56
2022-12-27T04:01:19.049Z,100529.44
2022-12-27T04:03:45.677Z,100520.81
2022-12-27T04:06:12.317Z,100516.91
2022-12-27T04:08:57.519Z,100526.16
2022-12-27T04:11:42.640Z,100529.09
2022-12-27T04:14:27.777Z,100535.47
2022-12-27T04:17:12.832Z,100534.84
2022-12-27T04:19:57.706Z,100533.22
2022-12-27T04:22:42.523Z,100530.41
2022-12-27T04:25:27.999Z,100532.50
2022-12-27T04:28:13.167Z,100529.00
2022-12-27T04:30:58.149Z,100524.91
2022-12-27T04:33:43.245Z,100540.38
2022-12-27T04:36:09.896Z,100537.91
2022-12-27T04:38:36.438Z,100548.59
2022-12-27T04:41:21.735Z,100537.31
2022-12-27T04:44:06.631Z,100543.69
2022-12-27T04:46:52.023Z,100547.78
2022-12-27T04:49:44.213Z,100547.19
2022-12-27T04:52:35.693Z,100542.88
2022-12-27T04:55:28.146Z,100548.69
2022-12-27T04:57:56.274Z,100540.22
2022-12-27T05:00:44.217Z,100542.06
2022-12-27T05:03:15.226Z,100545.78
2022-12-27T05:05:43.499Z,100546.59
2022-12-27T05:08:30.115Z,100548.25
2022-12-27T05:11:15.263Z,100541.25
2022-12-27T05:14:00.274Z,100537.53
2022-12-27T05:16:31.053Z,100544.53
2022-12-27T05:18:58.149Z,100532.19
2022-12-27T05:21:25.380Z,100544.53
2022-12-27T05:24:10.510Z,100543.47
2022-12-27T05:26:38.715Z,100549.88
2022-12-27T05:29:07.003Z,100552.53
2022-12-27T05:31:34.250Z,100553.59
2022-12-27T05:34:00.830Z,100543.94
2022-12-27T05:36:27.784Z,100549.28
2022-12-27T05:38:54.464Z,100555.66
2022-12-27T05:41:21.028Z,100566.34
2022-12-27T05:43:47.710Z,100570.66
2022-12-27T05:46:17.582Z,100569.03
2022-12-27T05:48:44.427Z,100565.53
2022-12-27T05:51:17.149Z,100562.25
2022-12-27T05:53:44.446Z,100558.75
2022-12-27T05:56:16.488Z,100558.75
2022-12-27T05:58:43.358Z,100562.47
2022-12-27T06:01:12.643Z,100555.28
2022-12-27T06:03:39.626Z,100548.22
2022-12-27T06:06:08.112Z,100552.13
2022-12-27T06:08:35.695Z,100550.66
2022-12-27T06:11:13.092Z,100541.34
2022-12-27T06:13:41.162Z,100549.38
2022-12-27T06:16:10.839Z,100549.94
2022-12-27T06:18:38.784Z,100551.00
2022-12-27T06:21:08.218Z,100544.97
2022-12-27T06:23:37.098Z,100549.88
2022-12-27T06:26:20.149Z,100545.66
2022-12-27T06:28:47.407Z,100538.69
2022-12-27T06:31:14.067Z,100541.25
2022-12-27T06:33:40.894Z,100539.16
2022-12-27T06:36:12.705Z,100534.84
2022-12-27T06:38:40.045Z,100524.91
2022-12-27T06:41:09.478Z,100531.78
2022-12-27T06:43:36.626Z,100538.06
2022-12-27T06:46:05.927Z,100536.59
2022-12-27T06:48:33.760Z,100536.66
2022-12-27T06:51:04.237Z,100534.72
2022-12-27T06:53:30.795Z,100541.69
2022-12-27T06:55:57.404Z,100535.72
2022-12-27T06:58:24.019Z,100538.66
2022-12-27T07:00:50.786Z,100541.66
2022-12-27T07:03:17.498Z,100539.13
2022-12-27T07:05:44.314Z,100551.34
2022-12-27T07:08:10.879Z,100549.00
2022-12-27T07:10:37.827Z,100558.38
2022-12-27T07:13:04.449Z,100559.38
2022-12-27T07:15:31.261Z,100562.31
2022-12-27T07:17:57.848Z,100571.13
2022-12-27T07:20:24.829Z,100571.75
2022-12-27T07:22:51.412Z,100578.06
2022-12-27T07:25:18.047Z,100573.00
2022-12-27T07:27:44.577Z,100570.66
2022-12-27T07:30:11.261Z,100580.19
2022-12-27T07:32:37.947Z,100578.16
2022-12-27T07:35:05.002Z,100585.00
2022-12-27T07:37:31.540Z,100587.69
2022-12-27T07:39:58.224Z,100579.88
2022-12-27T07:42:24.979Z,100587.88
2022-12-27T07:44:51.571Z,100588.94
2022-12-27T07:47:18.183Z,100597.78
2022-12-27T07:49:44.859Z,100589.97
2022-12-27T07:52:11.550Z,100600.66
2022-12-27T07:54:38.205Z,100602.53
2022-12-27T07:57:04.854Z,100605.81
2022-12-27T07:59:31.413Z,100593.84
2022-12-27T08:02:07.135Z,100600.38
2022-12-27T08:04:37.253Z,100598.38
2022-12-27T08:07:21.766Z,100592.44
2022-12-27T08:09:49.366Z,100603.50
2022-12-27T08:12:16.329Z,100604.09
2022-12-27T08:14:43.148Z,100602.03
2022-12-27T08:17:23.907Z,100607.38
2022-12-27T08:19:55.579Z,100608.56
2022-12-27T08:22:24.126Z,100611.63
2022-12-27T08:24:51.209Z,100611.38
2022-12-27T08:27:22.482Z,100607.06
2022-12-27T08:29:49.126Z,100611.97
2022-12-27T08:32:16.006Z,100608.84
2022-12-27T08:34:42.610Z,100615.59
2022-12-27T08:37:09.202Z,100622.81
2022-12-27T08:39:35.916Z,100618.28
2022-12-27T08:42:02.753Z,100620.28
2022-12-27T08:44:29.425Z,100624.75
2022-12-27T08:46:57.032Z,100629.63
2022-12-27T08:49:23.815Z,100628.16
2022-12-27T08:51:50.670Z,100629.31
2022-12-27T08:54:17.298Z,100633.22
2022-12-27T08:56:43.979Z,100634.38
2022-12-27T08:59:10.552Z,100628.56
2022-12-27T09:01:37.247Z,100633.72
2022-12-27T09:04:04.387Z,100647.91
2022-12-27T09:06:31.072Z,100645.81
2022-12-27T09:08:58.140Z,100647.91
2022-12-27T09:11:29.148Z,100647.91
2022-12-27T09:13:56.294Z,100646.66
2022-12-27T09:16:27.613Z,100652.81
2022-12-27T09:18:56.116Z,100653.97
2022-12-27T09:21:25.381Z,100647.75
2022-12-27T09:23:52.262Z,100648.94
2022-12-27T09:26:24.967Z,100653.38
2022-12-27T09:28:52.044Z,100656.56
2022-12-27T09:31:20.457Z,100647.88
2022-12-27T09:33:47.250Z,100656.50
2022-12-27T09:36:16.785Z,100665.84
2022-12-27T09:38:43.869Z,100661.19
2022-12-27T09:42:34.218Z,100664.47
2022-12-27T09:44:52.896Z,100656.31
2022-12-27T09:47:33.091Z,100653.78
2022-12-27T09:50:06.884Z,100652.19
2022-12-27T09:52:44.128Z,100650.78
2022-12-27T09:55:40.343Z,100649.28
2022-12-27T09:58:28.868Z,100651.03
2022-12-27T10:00:55.412Z,100640.56
2022-12-27T10:03:25.874Z,100637.53
2022-12-27T10:06:07.815Z,100640.31
2022-12-27T10:08:44.741Z,100641.63
2022-12-27T10:11:38.969Z,100642.78
2022-12-27T10:14:18.344Z,100642.09
2022-12-27T10:17:13.190Z,100645.47
2022-12-27T10:19:48.803Z,100636.34
2022-12-27T10:22:33.919Z,100629.78
2022-12-27T10:25:05.231Z,100641.94
2022-12-27T10:27:31.900Z,100641.22
2022-12-27T10:29:59.910Z,100630.94
2022-12-27T10:32:27.275Z,100629.53
2022-12-27T10:35:01.281Z,100635.09
2022-12-27T10:37:28.779Z,100625.00
2022-12-27T10:40:01.063Z,100632.13
2022-12-27T10:42:34.885Z,100627.34
2022-12-27T10:45:32.476Z,100626.28
2022-12-27T10:48:17.116Z,100624.75
2022-12-27T10:50:47.572Z,100621.34
2022-12-27T10:53:38.227Z,100623.28
2022-12-27T10:56:10.835Z,100617.84
2022-12-27T10:58:39.359Z,100623.09
2022-12-27T11:01:06.249Z,100620.81
2022-12-27T11:03:34.151Z,100624.91
2022-12-27T11:06:06.753Z,100619.75
2022-12-27T11:08:33.819Z,100621.88
2022-12-27T11:11:18.426Z,100636.03
2022-12-27T11:13:45.988Z,100632.38
2022-12-27T11:16:19.743Z,100636.38
2022-12-27T11:18:51.085Z,100638.16
2022-12-27T11:21:25.837Z,100644.00
2022-12-27T11:23:58.433Z,100637.00
2022-12-27T11:26:27.500Z,100638.28
2022-12-27T11:28:58.420Z,100633.25
2022-12-27T11:31:46.463Z,100629.03
2022-12-27T11:34:33.874Z,100630.56
2022-12-27T11:37:15.595Z,100628.72
2022-12-27T11:39:42.155Z,100615.03
2022-12-27T11:42:19.027Z,100617.22
2022-12-27T11:44:57.199Z,100610.41
2022-12-27T11:47:35.627Z,100618.41
2022-12-27T11:50:27.104Z,100611.81
2022-12-27T11:53:12.158Z,100609.97
2022-12-27T11:55:40.053Z,100608.34
2022-12-27T11:58:13.989Z,100604.72
2022-12-27T12:00:49.548Z,100598.88
2022-12-27T12:03:21.799Z,100601.06
2022-12-27T12:06:03.611Z,100599.09
2022-12-27T12:08:48.640Z,100592.09
2022-12-27T12:11:54.844Z,100582.63
2022-12-27T12:14:40.616Z,100592.88
2022-12-27T12:17:35.673Z,100598.63
2022-12-27T12:20:36.878Z,100592.88
2022-12-27T12:23:10.437Z,100589.84
2022-12-27T12:26:19.421Z,100592.28
2022-12-27T12:29:05.472Z,100591.47
2022-12-27T12:31:41.164Z,100586.66
2022-12-27T12:34:40.308Z,100591.78
2022-12-27T12:37:40.725Z,100602.81
2022-12-27T12:40:45.198Z,100600.59
2022-12-27T12:43:14.493Z,100606.44
2022-12-27T12:45:53.255Z,100602.59
2022-12-27T12:48:28.717Z,100595.50
2022-12-27T12:51:13.603Z,100588.41
2022-12-27T12:53:57.050Z,100584.09
2022-12-27T12:56:42.843Z,100572.78
2022-12-27T12:59:41.247Z,100565.19
2022-12-27T13:02:46.060Z,100569.75
2022-12-27T13:05:24.776Z,100553.97
2022-12-27T13:08:13.147Z,100553.97
2022-12-27T13:10:51.788Z,100545.63
2022-12-27T13:13:30.638Z,100536.53
2022-12-27T13:16:06.492Z,100543.53
2022-12-27T13:19:00.426Z,100542.94
2022-12-27T13:22:02.511Z,100530.84
2022-12-27T13:25:03.581Z,100535.72
2022-12-27T13:27:49.451Z,100531.97
2022-12-27T13:30:20.147Z,100538.47
2022-12-27T13:33:08.684Z,100527.72
2022-12-27T13:36:00.230Z,100524.47
2022-12-27T13:38:35.931Z,100517.97
2022-12-27T13:41:35.242Z,100517.06
2022-12-27T13:44:25.554Z,100520.25
2022-12-27T13:47:03.963Z,100519.09
2022-12-27T13:49:58.192Z,100521.22
2022-12-27T13:52:45.695Z,100507.47
2022-12-27T13:55:36.779Z,100506.69
2022-12-27T13:58:22.096Z,100502.97
2022-12-27T14:01:11.822Z,100502.66
2022-12-27T14:03:55.373Z,100503.59
2022-12-27T14:06:57.985Z,100498.97
2022-12-27T14:10:04.983Z,100494.25
2022-12-27T14:12:50.150Z,100487.97
2022-12-27T14:15:21.984Z,100488.44
2022-12-27T14:18:16.154Z,100488.94
2022-12-27T14:20:58.415Z,100477.13
2022-12-27T14:23:24.857Z,100473.78
2022-12-27T14:25:54.371Z,100471.69
2022-12-27T14:28:41.726Z,100473.31
2022-12-27T14:31:25.022Z,100480.19
2022-12-27T14:34:25.945Z,100480.09
2022-12-27T14:37:23.264Z,100489.22
2022-12-27T14:40:22.188Z,100498.41
2022-12-27T14:43:16.409Z,100496.69
2022-12-27T14:46:01.451Z,100500.44
2022-12-27T14:49:02.288Z,100497.41
2022-12-27T14:52:05.931Z,100497.66
2022-12-27T14:54:51.984Z,100496.41
2022-12-27T14:57:35.383Z,100495.84
2022-12-27T15:00:05.529Z,100489.81
2022-12-27T15:03:09.330Z,100483.78
2022-12-27T15:05:53.956Z,100486.34
2022-12-27T15:08:42.133Z,100482.28
2022-12-27T15:11:17.780Z,100487.78
2022-12-27T15:14:06.170Z,100488.25
2022-12-27T15:17:07.872Z,100493.63
2022-12-27T15:19:43.113Z,100490.34
2022-12-27T15:22:22.578Z,100489.22
2022-12-27T15:25:09.844Z,100490.28
2022-12-27T15:27:59.884Z,100482.00
2022-12-27T15:31:09.167Z,100478.41
2022-12-27T15:34:05.727Z,100477.03
2022-12-27T15:36:45.640Z,100483.66
2022-12-27T15:39:33.837Z,100488.53
2022-12-27T15:42:19.130Z,100488.69
2022-12-27T15:45:18.430Z,100488.69
2022-12-27T15:47:53.835Z,100488.06
2022-12-27T15:50:38.404Z,100485.19
2022-12-27T15:53:23.357Z,100478.56
2022-12-27T15:56:11.027Z,100477.06
2022-12-27T15:58:38.160Z,100472.63
2022-12-27T16:01:33.969Z,100459.22
2022-12-27T16:04:39.223Z,100462.72
2022-12-27T16:07:40.887Z,100459.09
2022-12-27T16:10:32.334Z,100455.47
2022-12-27T16:13:00.547Z,100463.72
2022-12-27T16:15:47.855Z,100459.53
2022-12-27T16:18:17.852Z,100457.78
2022-12-27T16:21:00.664Z,100450.06
2022-12-27T16:23:32.022Z,100440.28
2022-12-27T16:26:04.816Z,100445.53
2022-12-27T16:28:33.598Z,100437.13
2022-12-27T16:31:02.531Z,100440.53
2022-12-27T16:33:33.733Z,100440.59
2022-12-27T16:36:12.427Z,100437.22
2022-12-27T16:38:52.644Z,100436.84
2022-12-27T16:41:25.103Z,100416.97
2022-12-27T16:44:12.033Z,100432.88
2022-12-27T16:46:44.615Z,100428.81
2022-12-27T16:49:29.050Z,100436.47
2022-12-27T16:52:14.968Z,100437.38
2022-12-27T16:55:19.233Z,100438.28
2022-12-27T16:57:49.236Z,100447.34
2022-12-27T17:00:35.363Z,100449.88
2022-12-27T17:03:23.265Z,100454.88
2022-12-27T17:06:30.653Z,100452.66
2022-12-27T17:08:38.511Z,100449.22
2022-12-27T17:11:24.844Z,100447.69
2022-12-27T17:14:14.191Z,100452.69
2022-12-27T17:16:45.815Z,100444.41
2022-12-27T17:19:26.222Z,100453.72
2022-12-27T17:22:00.115Z,100451.50
2022-12-27T17:24:26.787Z,100442.91
2022-12-27T17:27:27.249Z,100441.69
2022-12-27T17:29:56.947Z,100445.41
2022-12-27T17:32:47.863Z,100440.28
2022-12-27T17:35:17.413Z,100439.47
2022-12-27T17:37:58.870Z,100438.28
2022-12-27T17:40:46.639Z,100437.31
2022-12-27T17:44:00.939Z,100439.41
2022-12-27T17:46:45.780Z,100422.56
2022-12-27T17:49:12.423Z,100432.03
2022-12-27T17:52:07.242Z,100417.28
2022-12-27T17:54:52.305Z,100424.72
2022-12-27T17:57:38.908Z,100423.75
2022-12-27T18:00:07.128Z,100426.63
2022-12-27T18:02:40.256Z,100420.69
2022-12-27T18:05:13.634Z,100414.16
2022-12-27T18:07:42.216Z,100419.97
2022-12-27T18:10:26.819Z,100407.50
2022-12-27T18:12:55.998Z,100402.63
2022-12-27T18:15:25.151Z,100402.81
2022-12-27T18:17:54.731Z,100401.19
2022-12-27T18:20:30.395Z,100394.81
2022-12-27T18:23:02.877Z,100393.78
2022-12-27T18:25:30.660Z,100383.47
2022-12-27T18:28:18.339Z,100387.53
2022-12-27T18:30:44.869Z,100398.00
2022-12-27T18:33:16.264Z,100392.06
2022-12-27T18:35:47.488Z,100389.84
2022-12-27T18:38:26.546Z,100389.25
2022-12-27T18:41:05.276Z,100392.13
2022-12-27T18:43:33.592Z,100389.25
2022-12-27T18:46:01.342Z,100380.66
2022-12-27T18:48:34.218Z,100373.75
2022-12-27T18:51:02.909Z,100361.66
2022-12-27T18:53:38.415Z,100350.84
2022-12-27T18:56:07.625Z,100354.53
2022-12-27T18:58:35.122Z,100363.81
2022-12-27T19:01:06.249Z,100352.53
2022-12-27T19:03:38.195Z,100356.47
2022-12-27T19:06:07.462Z,100356.69
2022-12-27T19:08:43.907Z,100357.94
2022-12-27T19:11:21.331Z,100352.25
2022-12-27T19:13:50.454Z,100339.69
2022-12-27T19:16:31.605Z,100340.16
2022-12-27T19:19:21.394Z,100343.25
2022-12-27T19:21:48.192Z,100345.34
2022-12-27T19:24:21.964Z,100329.19
2022-12-27T19:26:48.680Z,100325.91
2022-12-27T19:29:20.737Z,100333.69
2022-12-27T19:32:19.746Z,100328.59
2022-12-27T19:34:50.215Z,100320.28
2022-12-27T19:37:17.204Z,100317.16
2022-12-27T19:39:47.012Z,100322.28
2022-12-27T19:42:23.622Z,100319.81
2022-12-27T19:44:50.203Z,100322.63
2022-12-27T19:47:16.973Z,100318.94
2022-12-27T19:49:44.949Z,100313.59
2022-12-27T19:52:17.697Z,100307.66
2022-12-27T19:54:44.535Z,100303.69
2022-12-27T19:57:12.593Z,100299.06
2022-12-27T19:59:39.938Z,100291.78
2022-12-27T20:02:07.165Z,100286.81
2022-12-27T20:04:33.936Z,100286.16
2022-12-27T20:07:01.764Z,100286.88
2022-12-27T20:09:28.354Z,100282.84
2022-12-27T20:11:54.951Z,100270.69
2022-12-27T20:14:21.854Z,100274.66
2022-12-27T20:16:48.551Z,100259.00
2022-12-27T20:19:16.665Z,100249.81
2022-12-27T20:21:43.506Z,100251.13
2022-12-27T20:24:12.290Z,100240.09
2022-12-27T20:26:39.999Z,100235.03
2022-12-27T20:29:06.704Z,100238.88
2022-12-27T20:31:33.381Z,100248.06
2022-12-27T20:34:00.794Z,100241.91
2022-12-27T20:36:27.411Z,100239.25
2022-12-27T20:38:53.967Z,100231.19
2022-12-27T20:41:21.937Z,100235.72
2022-12-27T20:43:53.790Z,100241.72
2022-12-27T20:46:20.401Z,100235.47
2022-12-27T20:48:47.366Z,100226.97
2022-12-27T20:51:19.600Z,100228.09
2022-12-27T20:53:49.146Z,100217.63
2022-12-27T20:56:16.443Z,100231.47
2022-12-27T20:58:43.083Z,100223.81
2022-12-27T21:01:12.844Z,100218.38
2022-12-27T21:03:40.208Z,100214.28
2022-12-27T21:06:10.902Z,100211.03
2022-12-27T21:08:45.565Z,100211.03
2022-12-27T21:11:17.872Z,100204.53
2022-12-27T21:13:45.269Z,100202.56
2022-12-27T21:16:14.540Z,100201.16
2022-12-27T21:18:41.810Z,100205.94
2022-12-27T21:21:11.961Z,100199.31
2022-12-27T21:23:39.243Z,100205.25
2022-12-27T21:26:08.846Z,100193.38
2022-12-27T21:28:36.771Z,100191.03
2022-12-27T21:31:04.512Z,100193.72
2022-12-27T21:33:31.425Z,100191.25
2022-12-27T21:36:04.794Z,100194.63
2022-12-27T21:38:32.204Z,100190.72
2022-12-27T21:41:01.398Z,100183.84
2022-12-27T21:43:29.723Z,100188.41
2022-12-27T21:45:57.607Z,100185.47
2022-12-27T21:48:25.506Z,100187.09
2022-12-27T21:50:52.037Z,100181.75
2022-12-27T21:53:19.822Z,100191.41
2022-12-27T21:55:47.006Z,100191.09
2022-12-27T21:58:13.546Z,100191.78
2022-12-27T22:00:40.245Z,100191.78
2022-12-27T22:03:07.152Z,100196.28
2022-12-27T22:05:33.957Z,100192.56
2022-12-27T22:08:00.554Z,100192.69
2022-12-27T22:10:27.234Z,100192.34
2022-12-27T22:12:53.793Z,100189.16
2022-12-27T22:15:20.857Z,100189.38
2022-12-27T22:17:47.441Z,100183.28
2022-12-27T22:20:14.210Z,100168.00
2022-12-27T22:22:40.867Z,100177.31
2022-12-27T22:25:08.407Z,100174.09
2022-12-27T22:27:35.010Z,100172.41
2022-12-27T22:30:01.610Z,100181.72
2022-12-27T22:32:28.830Z,100171.09
2022-12-27T22:34:55.404Z,100171.41
2022-12-27T22:37:21.981Z,100176.88
2022-12-27T22:39:48.770Z,100178.22
2022-12-27T22:42:15.373Z,100169.13
2022-12-27T22:44:43.748Z,100167.03
2022-12-27T22:47:27.734Z,100165.72
2022-12-27T22:49:54.966Z,100156.63
2022-12-27T22:52:21.508Z,100157.75
2022-12-27T22:55:04.140Z,100161.00
2022-12-27T22:57:32.702Z,100147.59
2022-12-27T22:59:59.346Z,100146.59
2022-12-27T23:02:25.960Z,100139.09
2022-12-27T23:04:52.626Z,100142.34
2022-12-27T23:07:20.268Z,100133.25
2022-12-27T23:09:46.937Z,100135.66
2022-12-27T23:12:13.928Z,100129.03
2022-12-27T23:14:40.925Z,100120.47
2022-12-27T23:17:07.802Z,100121.03
2022-12-27T23:19:34.389Z,100123.72
2022-12-27T23:22:00.963Z,100118.28
2022-12-27T23:24:27.498Z,100119.19
2022-12-27T23:26:54.022Z,100113.09
2022-12-27T23:29:20.897Z,100103.81
2022-12-27T23:31:54.237Z,100102.88
2022-12-27T23:34:27.762Z,100092.81
2022-12-27T23:36:55.935Z,100079.00
2022-12-27T23:39:22.492Z,100076.94
2022-12-27T23:41:49.052Z,100066.59
2022-12-27T23:44:18.587Z,100065.94
2022-12-27T23:46:49.421Z,100054.88
2022-12-27T23:49:17.507Z,100050.34
2022-12-27T23:51:44.144Z,100044.16
2022-12-27T23:54:10.675Z,100032.41
2022-12-27T23:56:37.283Z,100021.81
2022-12-27T23:59:06.938Z,100014.34
